sensor_id;sensor_type;location;lat;lon;timestamp;P1;durP1;ratioP1;P2;durP2;ratioP2
11921;SDS011;6021;51.182;3.160;2023-03-05T00:01:30;4.17;;;3.87;;
11921;SDS011;6021;51.182;3.160;2023-03-05T00:04:00;6.40;;;4.43;;
11921;SDS011;6021;51.182;3.160;2023-03-05T00:06:29;5.23;;;4.43;;
11921;SDS011;6021;51.182;3.160;2023-03-05T00:08:58;5.50;;;4.57;;
11921;SDS011;6021;51.182;3.160;2023-03-05T00:11:27;4.07;;;3.67;;
11921;SDS011;6021;51.182;3.160;2023-03-05T00:13:57;4.97;;;4.57;;
11921;SDS011;6021;51.182;3.160;2023-03-05T00:16:26;5.40;;;4.90;;
11921;SDS011;6021;51.182;3.160;2023-03-05T00:18:56;6.17;;;5.57;;
11921;SDS011;6021;51.182;3.160;2023-03-05T00:21:26;7.37;;;6.33;;
11921;SDS011;6021;51.182;3.160;2023-03-05T00:23:56;8.63;;;7.53;;
11921;SDS011;6021;51.182;3.160;2023-03-05T00:26:27;9.37;;;6.70;;
11921;SDS011;6021;51.182;3.160;2023-03-05T00:28:58;10.50;;;9.40;;
11921;SDS011;6021;51.182;3.160;2023-03-05T00:31:27;12.23;;;9.83;;
11921;SDS011;6021;51.182;3.160;2023-03-05T00:33:58;8.53;;;7.73;;
11921;SDS011;6021;51.182;3.160;2023-03-05T00:36:28;9.37;;;8.17;;
11921;SDS011;6021;51.182;3.160;2023-03-05T00:38:57;8.90;;;8.10;;
11921;SDS011;6021;51.182;3.160;2023-03-05T00:41:26;7.93;;;7.13;;
11921;SDS011;6021;51.182;3.160;2023-03-05T00:43:54;6.03;;;5.53;;
11921;SDS011;6021;51.182;3.160;2023-03-05T00:46:24;6.63;;;5.70;;
11921;SDS011;6021;51.182;3.160;2023-03-05T00:48:53;6.90;;;5.60;;
11921;SDS011;6021;51.182;3.160;2023-03-05T00:51:22;6.70;;;4.07;;
11921;SDS011;6021;51.182;3.160;2023-03-05T00:53:51;6.23;;;4.47;;
11921;SDS011;6021;51.182;3.160;2023-03-05T00:56:19;9.80;;;5.33;;
11921;SDS011;6021;51.182;3.160;2023-03-05T00:58:48;6.77;;;6.10;;
11921;SDS011;6021;51.182;3.160;2023-03-05T01:01:17;5.53;;;5.03;;
11921;SDS011;6021;51.182;3.160;2023-03-05T01:03:45;6.30;;;5.50;;
11921;SDS011;6021;51.182;3.160;2023-03-05T01:06:14;6.30;;;5.50;;
11921;SDS011;6021;51.182;3.160;2023-03-05T01:08:44;8.23;;;5.60;;
11921;SDS011;6021;51.182;3.160;2023-03-05T01:11:12;6.73;;;5.40;;
11921;SDS011;6021;51.182;3.160;2023-03-05T01:13:41;7.27;;;4.80;;
11921;SDS011;6021;51.182;3.160;2023-03-05T01:16:09;6.93;;;5.30;;
11921;SDS011;6021;51.182;3.160;2023-03-05T01:18:38;4.83;;;4.43;;
11921;SDS011;6021;51.182;3.160;2023-03-05T01:21:07;5.17;;;4.67;;
11921;SDS011;6021;51.182;3.160;2023-03-05T01:23:36;7.57;;;4.50;;
11921;SDS011;6021;51.182;3.160;2023-03-05T01:26:04;6.83;;;5.70;;
11921;SDS011;6021;51.182;3.160;2023-03-05T01:28:35;6.00;;;5.40;;
11921;SDS011;6021;51.182;3.160;2023-03-05T01:31:06;5.40;;;4.97;;
11921;SDS011;6021;51.182;3.160;2023-03-05T01:33:34;6.53;;;5.67;;
11921;SDS011;6021;51.182;3.160;2023-03-05T01:36:05;6.03;;;5.17;;
11921;SDS011;6021;51.182;3.160;2023-03-05T01:38:38;5.60;;;5.00;;
11921;SDS011;6021;51.182;3.160;2023-03-05T01:41:07;5.60;;;5.10;;
11921;SDS011;6021;51.182;3.160;2023-03-05T01:43:35;5.77;;;5.13;;
11921;SDS011;6021;51.182;3.160;2023-03-05T01:49:16;8.33;;;5.97;;
11921;SDS011;6021;51.182;3.160;2023-03-05T01:54:37;6.63;;;6.03;;
11921;SDS011;6021;51.182;3.160;2023-03-05T01:57:08;6.60;;;6.00;;
11921;SDS011;6021;51.182;3.160;2023-03-05T01:59:38;12.37;;;7.70;;
11921;SDS011;6021;51.182;3.160;2023-03-05T02:02:08;8.33;;;7.47;;
11921;SDS011;6021;51.182;3.160;2023-03-05T02:04:41;11.73;;;9.37;;
11921;SDS011;6021;51.182;3.160;2023-03-05T02:07:14;8.20;;;7.40;;
11921;SDS011;6021;51.182;3.160;2023-03-05T02:09:43;8.10;;;7.30;;
11921;SDS011;6021;51.182;3.160;2023-03-05T02:12:11;7.37;;;6.60;;
11921;SDS011;6021;51.182;3.160;2023-03-05T02:14:41;8.67;;;7.57;;
11921;SDS011;6021;51.182;3.160;2023-03-05T02:17:12;7.30;;;6.60;;
11921;SDS011;6021;51.182;3.160;2023-03-05T02:19:51;9.07;;;8.17;;
11921;SDS011;6021;51.182;3.160;2023-03-05T02:22:22;9.37;;;7.17;;
11921;SDS011;6021;51.182;3.160;2023-03-05T02:24:51;8.30;;;7.50;;
11921;SDS011;6021;51.182;3.160;2023-03-05T02:27:23;11.63;;;6.97;;
11921;SDS011;6021;51.182;3.160;2023-03-05T02:29:55;5.93;;;5.33;;
11921;SDS011;6021;51.182;3.160;2023-03-05T02:32:24;5.23;;;4.83;;
11921;SDS011;6021;51.182;3.160;2023-03-05T02:34:52;7.07;;;5.30;;
11921;SDS011;6021;51.182;3.160;2023-03-05T02:37:20;6.17;;;5.00;;
11921;SDS011;6021;51.182;3.160;2023-03-05T02:39:49;7.80;;;5.73;;
11921;SDS011;6021;51.182;3.160;2023-03-05T02:42:17;6.20;;;5.70;;
11921;SDS011;6021;51.182;3.160;2023-03-05T02:44:45;7.67;;;6.30;;
11921;SDS011;6021;51.182;3.160;2023-03-05T02:47:13;6.50;;;5.80;;
11921;SDS011;6021;51.182;3.160;2023-03-05T02:49:42;7.53;;;6.60;;
11921;SDS011;6021;51.182;3.160;2023-03-05T02:52:10;7.73;;;6.13;;
11921;SDS011;6021;51.182;3.160;2023-03-05T02:54:38;6.17;;;5.60;;
11921;SDS011;6021;51.182;3.160;2023-03-05T02:57:07;8.23;;;6.93;;
11921;SDS011;6021;51.182;3.160;2023-03-05T02:59:37;6.40;;;5.70;;
11921;SDS011;6021;51.182;3.160;2023-03-05T03:02:05;7.10;;;6.40;;
11921;SDS011;6021;51.182;3.160;2023-03-05T03:04:33;6.80;;;6.30;;
11921;SDS011;6021;51.182;3.160;2023-03-05T03:07:01;8.17;;;7.27;;
11921;SDS011;6021;51.182;3.160;2023-03-05T03:09:32;7.13;;;6.43;;
11921;SDS011;6021;51.182;3.160;2023-03-05T03:12:01;7.47;;;6.77;;
11921;SDS011;6021;51.182;3.160;2023-03-05T03:14:31;8.17;;;6.90;;
11921;SDS011;6021;51.182;3.160;2023-03-05T03:17:01;8.00;;;7.20;;
11921;SDS011;6021;51.182;3.160;2023-03-05T03:19:30;11.43;;;7.67;;
11921;SDS011;6021;51.182;3.160;2023-03-05T03:21:58;7.10;;;6.50;;
11921;SDS011;6021;51.182;3.160;2023-03-05T03:24:28;4.43;;;4.03;;
11921;SDS011;6021;51.182;3.160;2023-03-05T03:26:57;3.27;;;2.70;;
11921;SDS011;6021;51.182;3.160;2023-03-05T03:29:25;2.40;;;2.20;;
11921;SDS011;6021;51.182;3.160;2023-03-05T03:31:54;2.87;;;2.50;;
11921;SDS011;6021;51.182;3.160;2023-03-05T03:34:22;3.53;;;2.80;;
11921;SDS011;6021;51.182;3.160;2023-03-05T03:36:51;3.73;;;3.00;;
11921;SDS011;6021;51.182;3.160;2023-03-05T03:39:20;3.00;;;2.70;;
11921;SDS011;6021;51.182;3.160;2023-03-05T03:41:51;3.87;;;3.57;;
11921;SDS011;6021;51.182;3.160;2023-03-05T03:44:20;4.40;;;4.00;;
11921;SDS011;6021;51.182;3.160;2023-03-05T03:46:48;3.10;;;2.80;;
11921;SDS011;6021;51.182;3.160;2023-03-05T03:49:18;2.70;;;2.50;;
11921;SDS011;6021;51.182;3.160;2023-03-05T03:51:49;3.10;;;2.80;;
11921;SDS011;6021;51.182;3.160;2023-03-05T03:54:20;2.40;;;2.20;;
11921;SDS011;6021;51.182;3.160;2023-03-05T03:56:49;2.60;;;2.40;;
11921;SDS011;6021;51.182;3.160;2023-03-05T03:59:18;3.50;;;2.17;;
11921;SDS011;6021;51.182;3.160;2023-03-05T04:01:46;2.50;;;2.20;;
11921;SDS011;6021;51.182;3.160;2023-03-05T04:04:14;3.60;;;2.37;;
11921;SDS011;6021;51.182;3.160;2023-03-05T04:06:43;2.57;;;2.37;;
11921;SDS011;6021;51.182;3.160;2023-03-05T04:09:11;3.17;;;2.87;;
11921;SDS011;6021;51.182;3.160;2023-03-05T04:11:39;3.80;;;3.30;;
11921;SDS011;6021;51.182;3.160;2023-03-05T04:14:08;3.63;;;3.33;;
11921;SDS011;6021;51.182;3.160;2023-03-05T04:16:36;3.90;;;3.50;;
11921;SDS011;6021;51.182;3.160;2023-03-05T04:19:04;3.50;;;3.20;;
11921;SDS011;6021;51.182;3.160;2023-03-05T04:21:32;3.63;;;3.03;;
11921;SDS011;6021;51.182;3.160;2023-03-05T04:24:01;3.50;;;2.90;;
11921;SDS011;6021;51.182;3.160;2023-03-05T04:26:29;3.27;;;2.70;;
11921;SDS011;6021;51.182;3.160;2023-03-05T04:28:58;2.67;;;2.40;;
11921;SDS011;6021;51.182;3.160;2023-03-05T04:31:26;2.67;;;2.47;;
11921;SDS011;6021;51.182;3.160;2023-03-05T04:33:54;2.70;;;2.50;;
11921;SDS011;6021;51.182;3.160;2023-03-05T04:36:23;3.10;;;2.80;;
11921;SDS011;6021;51.182;3.160;2023-03-05T04:38:52;3.07;;;2.77;;
11921;SDS011;6021;51.182;3.160;2023-03-05T04:41:20;3.17;;;2.70;;
11921;SDS011;6021;51.182;3.160;2023-03-05T04:43:48;2.90;;;2.60;;
11921;SDS011;6021;51.182;3.160;2023-03-05T04:46:17;2.90;;;2.70;;
11921;SDS011;6021;51.182;3.160;2023-03-05T04:48:45;3.10;;;2.80;;
11921;SDS011;6021;51.182;3.160;2023-03-05T04:51:14;3.27;;;2.60;;
11921;SDS011;6021;51.182;3.160;2023-03-05T04:53:42;2.97;;;2.60;;
11921;SDS011;6021;51.182;3.160;2023-03-05T04:56:10;3.90;;;3.10;;
11921;SDS011;6021;51.182;3.160;2023-03-05T04:58:39;4.30;;;3.90;;
11921;SDS011;6021;51.182;3.160;2023-03-05T05:01:07;5.00;;;4.00;;
11921;SDS011;6021;51.182;3.160;2023-03-05T05:03:36;4.77;;;4.27;;
11921;SDS011;6021;51.182;3.160;2023-03-05T05:06:04;4.43;;;4.03;;
11921;SDS011;6021;51.182;3.160;2023-03-05T05:08:33;4.20;;;3.50;;
11921;SDS011;6021;51.182;3.160;2023-03-05T05:11:03;4.27;;;3.87;;
11921;SDS011;6021;51.182;3.160;2023-03-05T05:13:33;5.20;;;3.80;;
11921;SDS011;6021;51.182;3.160;2023-03-05T05:16:04;4.13;;;3.73;;
11921;SDS011;6021;51.182;3.160;2023-03-05T05:18:35;4.10;;;3.80;;
11921;SDS011;6021;51.182;3.160;2023-03-05T05:21:09;4.40;;;4.00;;
11921;SDS011;6021;51.182;3.160;2023-03-05T05:23:39;3.60;;;3.30;;
11921;SDS011;6021;51.182;3.160;2023-03-05T05:26:07;3.47;;;3.17;;
11921;SDS011;6021;51.182;3.160;2023-03-05T05:28:38;3.20;;;2.93;;
11921;SDS011;6021;51.182;3.160;2023-03-05T05:31:09;4.53;;;3.40;;
11921;SDS011;6021;51.182;3.160;2023-03-05T05:33:39;3.87;;;3.30;;
11921;SDS011;6021;51.182;3.160;2023-03-05T05:36:10;3.70;;;3.40;;
11921;SDS011;6021;51.182;3.160;2023-03-05T05:38:40;4.57;;;3.20;;
11921;SDS011;6021;51.182;3.160;2023-03-05T05:41:10;6.90;;;2.80;;
11921;SDS011;6021;51.182;3.160;2023-03-05T05:43:39;2.97;;;2.60;;
11921;SDS011;6021;51.182;3.160;2023-03-05T05:46:10;2.53;;;2.33;;
11921;SDS011;6021;51.182;3.160;2023-03-05T05:48:39;3.73;;;2.80;;
11921;SDS011;6021;51.182;3.160;2023-03-05T05:51:09;2.80;;;2.40;;
11921;SDS011;6021;51.182;3.160;2023-03-05T05:53:40;3.50;;;2.80;;
11921;SDS011;6021;51.182;3.160;2023-03-05T05:56:09;4.80;;;3.50;;
11921;SDS011;6021;51.182;3.160;2023-03-05T05:58:39;5.27;;;3.00;;
11921;SDS011;6021;51.182;3.160;2023-03-05T06:01:16;3.23;;;2.70;;
11921;SDS011;6021;51.182;3.160;2023-03-05T06:03:46;4.27;;;2.50;;
11921;SDS011;6021;51.182;3.160;2023-03-05T06:06:16;3.00;;;2.30;;
11921;SDS011;6021;51.182;3.160;2023-03-05T06:08:46;2.60;;;2.40;;
11921;SDS011;6021;51.182;3.160;2023-03-05T06:11:14;4.50;;;2.40;;
11921;SDS011;6021;51.182;3.160;2023-03-05T06:13:43;3.37;;;2.70;;
11921;SDS011;6021;51.182;3.160;2023-03-05T06:16:13;5.67;;;3.50;;
11921;SDS011;6021;51.182;3.160;2023-03-05T06:18:43;4.37;;;3.67;;
11921;SDS011;6021;51.182;3.160;2023-03-05T06:21:12;4.10;;;3.23;;
11921;SDS011;6021;51.182;3.160;2023-03-05T06:23:42;5.87;;;3.30;;
11921;SDS011;6021;51.182;3.160;2023-03-05T06:26:14;2.83;;;2.63;;
11921;SDS011;6021;51.182;3.160;2023-03-05T06:28:44;2.90;;;2.60;;
11921;SDS011;6021;51.182;3.160;2023-03-05T06:31:13;3.20;;;2.80;;
11921;SDS011;6021;51.182;3.160;2023-03-05T06:33:44;3.03;;;2.60;;
11921;SDS011;6021;51.182;3.160;2023-03-05T06:36:13;3.53;;;3.00;;
11921;SDS011;6021;51.182;3.160;2023-03-05T06:38:42;3.53;;;2.40;;
11921;SDS011;6021;51.182;3.160;2023-03-05T06:41:12;2.40;;;2.20;;
11921;SDS011;6021;51.182;3.160;2023-03-05T06:43:42;2.97;;;2.77;;
11921;SDS011;6021;51.182;3.160;2023-03-05T06:48:44;2.40;;;2.20;;
11921;SDS011;6021;51.182;3.160;2023-03-05T06:51:14;3.00;;;2.63;;
11921;SDS011;6021;51.182;3.160;2023-03-05T06:53:43;3.23;;;2.43;;
11921;SDS011;6021;51.182;3.160;2023-03-05T06:56:13;2.40;;;2.20;;
11921;SDS011;6021;51.182;3.160;2023-03-05T06:58:42;2.60;;;2.40;;
11921;SDS011;6021;51.182;3.160;2023-03-05T07:01:12;2.60;;;2.40;;
11921;SDS011;6021;51.182;3.160;2023-03-05T07:03:41;5.97;;;3.17;;
11921;SDS011;6021;51.182;3.160;2023-03-05T07:06:11;3.13;;;2.70;;
11921;SDS011;6021;51.182;3.160;2023-03-05T07:08:42;2.87;;;2.10;;
11921;SDS011;6021;51.182;3.160;2023-03-05T07:11:15;2.57;;;2.37;;
11921;SDS011;6021;51.182;3.160;2023-03-05T07:13:45;2.90;;;2.60;;
11921;SDS011;6021;51.182;3.160;2023-03-05T07:16:17;3.50;;;3.20;;
11921;SDS011;6021;51.182;3.160;2023-03-05T07:18:47;3.23;;;2.70;;
11921;SDS011;6021;51.182;3.160;2023-03-05T07:21:19;2.73;;;2.47;;
11921;SDS011;6021;51.182;3.160;2023-03-05T07:23:49;4.20;;;2.23;;
11921;SDS011;6021;51.182;3.160;2023-03-05T07:26:19;4.63;;;2.33;;
11921;SDS011;6021;51.182;3.160;2023-03-05T07:28:47;1.93;;;1.80;;
11921;SDS011;6021;51.182;3.160;2023-03-05T07:31:17;2.40;;;2.20;;
11921;SDS011;6021;51.182;3.160;2023-03-05T07:33:48;2.20;;;2.00;;
11921;SDS011;6021;51.182;3.160;2023-03-05T07:36:17;2.60;;;1.70;;
11921;SDS011;6021;51.182;3.160;2023-03-05T07:38:46;2.13;;;1.57;;
11921;SDS011;6021;51.182;3.160;2023-03-05T07:41:15;1.50;;;1.40;;
11921;SDS011;6021;51.182;3.160;2023-03-05T07:43:46;1.80;;;1.70;;
11921;SDS011;6021;51.182;3.160;2023-03-05T07:46:16;2.53;;;1.90;;
11921;SDS011;6021;51.182;3.160;2023-03-05T07:48:45;2.13;;;1.80;;
11921;SDS011;6021;51.182;3.160;2023-03-05T07:51:15;1.87;;;1.77;;
11921;SDS011;6021;51.182;3.160;2023-03-05T07:53:46;2.57;;;1.80;;
11921;SDS011;6021;51.182;3.160;2023-03-05T07:56:22;2.77;;;2.00;;
11921;SDS011;6021;51.182;3.160;2023-03-05T07:59:01;2.00;;;1.70;;
11921;SDS011;6021;51.182;3.160;2023-03-05T08:01:34;3.40;;;2.10;;
11921;SDS011;6021;51.182;3.160;2023-03-05T08:04:03;3.47;;;2.23;;
11921;SDS011;6021;51.182;3.160;2023-03-05T08:06:32;2.60;;;2.10;;
11921;SDS011;6021;51.182;3.160;2023-03-05T08:09:01;2.97;;;1.93;;
11921;SDS011;6021;51.182;3.160;2023-03-05T08:11:31;2.40;;;1.50;;
11921;SDS011;6021;51.182;3.160;2023-03-05T08:13:59;2.37;;;1.53;;
11921;SDS011;6021;51.182;3.160;2023-03-05T08:16:29;2.20;;;1.98;;
11921;SDS011;6021;51.182;3.160;2023-03-05T08:18:58;3.27;;;2.20;;
11921;SDS011;6021;51.182;3.160;2023-03-05T08:21:28;2.30;;;2.10;;
11921;SDS011;6021;51.182;3.160;2023-03-05T08:24:05;1.57;;;1.47;;
11921;SDS011;6021;51.182;3.160;2023-03-05T08:26:35;2.93;;;1.40;;
11921;SDS011;6021;51.182;3.160;2023-03-05T08:29:07;1.30;;;1.20;;
11921;SDS011;6021;51.182;3.160;2023-03-05T08:31:36;1.20;;;1.00;;
11921;SDS011;6021;51.182;3.160;2023-03-05T08:34:08;1.73;;;0.90;;
11921;SDS011;6021;51.182;3.160;2023-03-05T08:36:36;2.13;;;1.10;;
11921;SDS011;6021;51.182;3.160;2023-03-05T08:39:05;1.57;;;1.10;;
11921;SDS011;6021;51.182;3.160;2023-03-05T08:41:35;1.60;;;1.10;;
11921;SDS011;6021;51.182;3.160;2023-03-05T08:44:03;1.50;;;1.13;;
11921;SDS011;6021;51.182;3.160;2023-03-05T08:46:32;2.33;;;1.20;;
11921;SDS011;6021;51.182;3.160;2023-03-05T08:49:01;3.87;;;1.30;;
11921;SDS011;6021;51.182;3.160;2023-03-05T08:51:29;2.23;;;1.10;;
11921;SDS011;6021;51.182;3.160;2023-03-05T08:53:58;1.63;;;1.13;;
11921;SDS011;6021;51.182;3.160;2023-03-05T08:56:27;1.20;;;1.10;;
11921;SDS011;6021;51.182;3.160;2023-03-05T08:58:56;0.97;;;0.97;;
11921;SDS011;6021;51.182;3.160;2023-03-05T09:01:25;1.07;;;0.80;;
11921;SDS011;6021;51.182;3.160;2023-03-05T09:03:53;0.90;;;0.80;;
11921;SDS011;6021;51.182;3.160;2023-03-05T09:06:22;1.87;;;1.30;;
11921;SDS011;6021;51.182;3.160;2023-03-05T09:08:50;1.53;;;1.00;;
11921;SDS011;6021;51.182;3.160;2023-03-05T09:11:42;1.90;;;1.00;;
11921;SDS011;6021;51.182;3.160;2023-03-05T09:14:08;1.20;;;1.10;;
11921;SDS011;6021;51.182;3.160;2023-03-05T09:16:37;1.50;;;1.23;;
11921;SDS011;6021;51.182;3.160;2023-03-05T09:19:06;2.13;;;1.70;;
11921;SDS011;6021;51.182;3.160;2023-03-05T09:21:42;3.83;;;1.97;;
11921;SDS011;6021;51.182;3.160;2023-03-05T09:24:05;4.17;;;1.63;;
11921;SDS011;6021;51.182;3.160;2023-03-05T09:26:34;3.67;;;1.40;;
11921;SDS011;6021;51.182;3.160;2023-03-05T09:29:02;2.50;;;1.70;;
11921;SDS011;6021;51.182;3.160;2023-03-05T09:31:33;2.80;;;1.33;;
11921;SDS011;6021;51.182;3.160;2023-03-05T09:34:03;1.47;;;1.37;;
11921;SDS011;6021;51.182;3.160;2023-03-05T09:36:32;1.35;;;1.25;;
11921;SDS011;6021;51.182;3.160;2023-03-05T09:39:01;1.30;;;1.20;;
11921;SDS011;6021;51.182;3.160;2023-03-05T09:41:34;1.73;;;1.47;;
11921;SDS011;6021;51.182;3.160;2023-03-05T09:44:19;1.77;;;1.57;;
11921;SDS011;6021;51.182;3.160;2023-03-05T09:49:38;2.43;;;1.60;;
11921;SDS011;6021;51.182;3.160;2023-03-05T09:52:43;2.10;;;1.80;;
11921;SDS011;6021;51.182;3.160;2023-03-05T09:55:14;2.70;;;2.30;;
11921;SDS011;6021;51.182;3.160;2023-03-05T09:57:45;4.03;;;2.60;;
11921;SDS011;6021;51.182;3.160;2023-03-05T10:00:40;3.33;;;2.30;;
11921;SDS011;6021;51.182;3.160;2023-03-05T10:03:20;2.73;;;2.33;;
11921;SDS011;6021;51.182;3.160;2023-03-05T10:13:56;4.50;;;2.60;;
11921;SDS011;6021;51.182;3.160;2023-03-05T10:19:30;4.03;;;2.67;;
11921;SDS011;6021;51.182;3.160;2023-03-05T10:24:44;5.77;;;2.87;;
11921;SDS011;6021;51.182;3.160;2023-03-05T10:27:27;4.30;;;2.40;;
11921;SDS011;6021;51.182;3.160;2023-03-05T10:30:11;3.70;;;2.10;;
11921;SDS011;6021;51.182;3.160;2023-03-05T10:40:55;3.50;;;1.67;;
11921;SDS011;6021;51.182;3.160;2023-03-05T10:46:08;2.23;;;1.53;;
11921;SDS011;6021;51.182;3.160;2023-03-05T10:48:41;2.30;;;1.33;;
11921;SDS011;6021;51.182;3.160;2023-03-05T10:56:32;1.70;;;0.87;;
11921;SDS011;6021;51.182;3.160;2023-03-05T10:59:00;3.00;;;1.03;;
11921;SDS011;6021;51.182;3.160;2023-03-05T11:01:29;2.50;;;0.83;;
11921;SDS011;6021;51.182;3.160;2023-03-05T11:06:43;1.60;;;1.00;;
11921;SDS011;6021;51.182;3.160;2023-03-05T11:09:22;3.17;;;1.00;;
11921;SDS011;6021;51.182;3.160;2023-03-05T11:12:03;2.57;;;0.93;;
11921;SDS011;6021;51.182;3.160;2023-03-05T11:14:39;1.30;;;0.90;;
11921;SDS011;6021;51.182;3.160;2023-03-05T11:17:30;2.30;;;0.90;;
11921;SDS011;6021;51.182;3.160;2023-03-05T11:23:09;1.67;;;0.70;;
11921;SDS011;6021;51.182;3.160;2023-03-05T11:26:00;1.40;;;0.90;;
11921;SDS011;6021;51.182;3.160;2023-03-05T11:28:36;3.23;;;1.10;;
11921;SDS011;6021;51.182;3.160;2023-03-05T11:34:06;2.37;;;1.10;;
11921;SDS011;6021;51.182;3.160;2023-03-05T11:36:40;3.20;;;1.13;;
11921;SDS011;6021;51.182;3.160;2023-03-05T11:39:10;1.33;;;1.10;;
11921;SDS011;6021;51.182;3.160;2023-03-05T11:41:44;1.43;;;1.00;;
11921;SDS011;6021;51.182;3.160;2023-03-05T11:44:27;2.07;;;1.10;;
11921;SDS011;6021;51.182;3.160;2023-03-05T11:47:12;2.93;;;1.07;;
11921;SDS011;6021;51.182;3.160;2023-03-05T11:49:47;3.20;;;1.20;;
11921;SDS011;6021;51.182;3.160;2023-03-05T11:52:21;3.53;;;1.40;;
11921;SDS011;6021;51.182;3.160;2023-03-05T11:54:58;2.77;;;1.30;;
11921;SDS011;6021;51.182;3.160;2023-03-05T11:57:40;2.80;;;1.67;;
11921;SDS011;6021;51.182;3.160;2023-03-05T12:00:26;4.73;;;1.30;;
11921;SDS011;6021;51.182;3.160;2023-03-05T12:02:48;5.73;;;1.50;;
11921;SDS011;6021;51.182;3.160;2023-03-05T12:05:18;6.47;;;1.50;;
11921;SDS011;6021;51.182;3.160;2023-03-05T12:07:52;2.73;;;1.50;;
11921;SDS011;6021;51.182;3.160;2023-03-05T12:10:23;3.00;;;1.50;;
11921;SDS011;6021;51.182;3.160;2023-03-05T12:13:05;3.40;;;1.73;;
11921;SDS011;6021;51.182;3.160;2023-03-05T12:18:25;4.57;;;2.10;;
11921;SDS011;6021;51.182;3.160;2023-03-05T12:20:59;2.60;;;2.10;;
11921;SDS011;6021;51.182;3.160;2023-03-05T12:23:42;3.30;;;2.20;;
11921;SDS011;6021;51.182;3.160;2023-03-05T12:26:52;3.40;;;2.57;;
11921;SDS011;6021;51.182;3.160;2023-03-05T12:28:54;4.27;;;2.33;;
11921;SDS011;6021;51.182;3.160;2023-03-05T12:31:36;5.40;;;2.53;;
11921;SDS011;6021;51.182;3.160;2023-03-05T12:36:51;3.20;;;2.70;;
11921;SDS011;6021;51.182;3.160;2023-03-05T12:47:45;3.10;;;2.10;;
11921;SDS011;6021;51.182;3.160;2023-03-05T12:53:08;2.43;;;1.80;;
11921;SDS011;6021;51.182;3.160;2023-03-05T12:58:27;3.10;;;2.30;;
11921;SDS011;6021;51.182;3.160;2023-03-05T13:03:52;2.63;;;2.17;;
11921;SDS011;6021;51.182;3.160;2023-03-05T13:08:59;5.93;;;4.43;;
11921;SDS011;6021;51.182;3.160;2023-03-05T13:11:31;6.60;;;5.33;;
11921;SDS011;6021;51.182;3.160;2023-03-05T13:14:01;7.07;;;6.37;;
11921;SDS011;6021;51.182;3.160;2023-03-05T13:16:35;7.90;;;6.80;;
11921;SDS011;6021;51.182;3.160;2023-03-05T13:19:13;7.70;;;6.90;;
11921;SDS011;6021;51.182;3.160;2023-03-05T13:21:37;8.50;;;6.50;;
11921;SDS011;6021;51.182;3.160;2023-03-05T13:24:12;7.50;;;5.77;;
11921;SDS011;6021;51.182;3.160;2023-03-05T13:26:43;7.90;;;5.97;;
11921;SDS011;6021;51.182;3.160;2023-03-05T13:29:12;6.63;;;5.70;;
11921;SDS011;6021;51.182;3.160;2023-03-05T13:32:17;6.87;;;5.97;;
11921;SDS011;6021;51.182;3.160;2023-03-05T13:36:54;7.50;;;6.13;;
11921;SDS011;6021;51.182;3.160;2023-03-05T13:39:25;7.17;;;6.00;;
11921;SDS011;6021;51.182;3.160;2023-03-05T13:42:00;8.60;;;5.93;;
11921;SDS011;6021;51.182;3.160;2023-03-05T13:44:27;8.13;;;5.83;;
11921;SDS011;6021;51.182;3.160;2023-03-05T13:47:13;8.00;;;5.70;;
11921;SDS011;6021;51.182;3.160;2023-03-05T13:49:36;7.30;;;5.37;;
11921;SDS011;6021;51.182;3.160;2023-03-05T13:52:05;7.80;;;5.73;;
11921;SDS011;6021;51.182;3.160;2023-03-05T13:54:33;8.00;;;6.10;;
11921;SDS011;6021;51.182;3.160;2023-03-05T13:57:04;7.10;;;6.03;;
11921;SDS011;6021;51.182;3.160;2023-03-05T13:59:34;7.40;;;6.17;;
11921;SDS011;6021;51.182;3.160;2023-03-05T14:02:14;8.20;;;5.93;;
11921;SDS011;6021;51.182;3.160;2023-03-05T14:04:42;7.73;;;5.83;;
11921;SDS011;6021;51.182;3.160;2023-03-05T14:07:36;8.67;;;6.33;;
11921;SDS011;6021;51.182;3.160;2023-03-05T14:09:50;9.07;;;5.80;;
11921;SDS011;6021;51.182;3.160;2023-03-05T14:12:27;6.73;;;6.07;;
11921;SDS011;6021;51.182;3.160;2023-03-05T14:15:03;8.93;;;6.40;;
11921;SDS011;6021;51.182;3.160;2023-03-05T14:17:40;8.47;;;6.77;;
11921;SDS011;6021;51.182;3.160;2023-03-05T14:22:43;7.93;;;7.13;;
11921;SDS011;6021;51.182;3.160;2023-03-05T14:25:30;10.03;;;6.60;;
11921;SDS011;6021;51.182;3.160;2023-03-05T14:30:51;8.40;;;6.80;;
11921;SDS011;6021;51.182;3.160;2023-03-05T14:33:21;7.70;;;6.60;;
11921;SDS011;6021;51.182;3.160;2023-03-05T14:35:52;10.27;;;6.90;;
11921;SDS011;6021;51.182;3.160;2023-03-05T14:38:23;6.90;;;6.20;;
11921;SDS011;6021;51.182;3.160;2023-03-05T14:40:53;11.23;;;7.17;;
11921;SDS011;6021;51.182;3.160;2023-03-05T14:43:22;7.33;;;6.33;;
11921;SDS011;6021;51.182;3.160;2023-03-05T14:45:50;9.80;;;6.80;;
11921;SDS011;6021;51.182;3.160;2023-03-05T14:48:18;8.30;;;6.80;;
11921;SDS011;6021;51.182;3.160;2023-03-05T14:50:50;8.97;;;7.27;;
11921;SDS011;6021;51.182;3.160;2023-03-05T14:53:22;8.53;;;7.17;;
11921;SDS011;6021;51.182;3.160;2023-03-05T14:55:53;8.10;;;7.17;;
11921;SDS011;6021;51.182;3.160;2023-03-05T14:58:23;10.03;;;7.13;;
11921;SDS011;6021;51.182;3.160;2023-03-05T15:00:54;9.30;;;7.47;;
11921;SDS011;6021;51.182;3.160;2023-03-05T15:03:22;9.17;;;6.23;;
11921;SDS011;6021;51.182;3.160;2023-03-05T15:05:53;7.80;;;6.03;;
11921;SDS011;6021;51.182;3.160;2023-03-05T15:08:25;8.13;;;7.33;;
11921;SDS011;6021;51.182;3.160;2023-03-05T15:10:55;8.53;;;7.20;;
11921;SDS011;6021;51.182;3.160;2023-03-05T15:13:24;9.67;;;6.90;;
11921;SDS011;6021;51.182;3.160;2023-03-05T15:15:53;9.40;;;5.60;;
11921;SDS011;6021;51.182;3.160;2023-03-05T15:18:22;8.83;;;6.80;;
11921;SDS011;6021;51.182;3.160;2023-03-05T15:20:50;8.87;;;7.63;;
11921;SDS011;6021;51.182;3.160;2023-03-05T15:23:19;7.50;;;6.13;;
11921;SDS011;6021;51.182;3.160;2023-03-05T15:25:48;8.40;;;7.43;;
11921;SDS011;6021;51.182;3.160;2023-03-05T15:28:16;9.50;;;7.90;;
11921;SDS011;6021;51.182;3.160;2023-03-05T15:30:46;10.13;;;8.53;;
11921;SDS011;6021;51.182;3.160;2023-03-05T15:33:15;9.63;;;8.63;;
11921;SDS011;6021;51.182;3.160;2023-03-05T15:35:44;10.90;;;9.07;;
11921;SDS011;6021;51.182;3.160;2023-03-05T15:38:13;11.47;;;9.80;;
11921;SDS011;6021;51.182;3.160;2023-03-05T15:40:41;11.10;;;8.00;;
11921;SDS011;6021;51.182;3.160;2023-03-05T15:43:10;9.37;;;7.77;;
11921;SDS011;6021;51.182;3.160;2023-03-05T15:45:39;10.37;;;7.93;;
11921;SDS011;6021;51.182;3.160;2023-03-05T15:48:07;12.77;;;9.87;;
11921;SDS011;6021;51.182;3.160;2023-03-05T15:50:38;12.40;;;11.17;;
11921;SDS011;6021;51.182;3.160;2023-03-05T15:53:07;12.27;;;11.00;;
11921;SDS011;6021;51.182;3.160;2023-03-05T15:55:39;13.17;;;11.57;;
11921;SDS011;6021;51.182;3.160;2023-03-05T15:58:11;13.80;;;12.30;;
11921;SDS011;6021;51.182;3.160;2023-03-05T16:00:40;15.17;;;12.80;;
11921;SDS011;6021;51.182;3.160;2023-03-05T16:03:09;12.90;;;11.60;;
11921;SDS011;6021;51.182;3.160;2023-03-05T16:05:38;14.23;;;12.63;;
11921;SDS011;6021;51.182;3.160;2023-03-05T16:08:06;15.13;;;13.07;;
11921;SDS011;6021;51.182;3.160;2023-03-05T16:10:35;14.77;;;13.10;;
11921;SDS011;6021;51.182;3.160;2023-03-05T16:13:10;14.00;;;11.03;;
11921;SDS011;6021;51.182;3.160;2023-03-05T16:15:36;15.40;;;11.30;;
11921;SDS011;6021;51.182;3.160;2023-03-05T16:18:07;16.07;;;13.70;;
11921;SDS011;6021;51.182;3.160;2023-03-05T16:20:37;16.00;;;13.87;;
11921;SDS011;6021;51.182;3.160;2023-03-05T16:23:06;16.20;;;14.47;;
11921;SDS011;6021;51.182;3.160;2023-03-05T16:25:35;15.87;;;14.30;;
11921;SDS011;6021;51.182;3.160;2023-03-05T16:28:04;15.70;;;14.10;;
11921;SDS011;6021;51.182;3.160;2023-03-05T16:30:32;18.87;;;15.80;;
11921;SDS011;6021;51.182;3.160;2023-03-05T16:33:01;17.53;;;15.70;;
11921;SDS011;6021;51.182;3.160;2023-03-05T16:35:29;16.67;;;14.97;;
11921;SDS011;6021;51.182;3.160;2023-03-05T16:37:58;19.40;;;15.73;;
11921;SDS011;6021;51.182;3.160;2023-03-05T16:40:26;17.60;;;15.53;;
11921;SDS011;6021;51.182;3.160;2023-03-05T16:42:55;17.40;;;15.53;;
11921;SDS011;6021;51.182;3.160;2023-03-05T16:45:24;16.53;;;14.20;;